Time;durP1;ratioP1;P1;durP2;ratioP2;P2;SDS_P1;SDS_P2;PMS_P1;PMS_P2;Temp;Humidity;BMP_temperature;BMP_pressure;BME280_temperature;BME280_humidity;BME280_pressure;Samples;Min_cycle;Max_cycle;Signal;HPM_P1;HPM_P2
2023/10/06 00:01:22;;;;;;;5.78;2.67;;;;;;;;;;4984432;28;20435;-81
2023/10/06 00:03:57;;;;;;;6.32;2.97;;;;;;;;;;4988065;28;20053;-81
2023/10/06 00:06:23;;;;;;;6.57;2.60;;;;;;;;;;4980623;28;20034;-82
2023/10/06 00:08:54;;;;;;;7.35;2.80;;;;;;;;;;4975994;28;20039;-82
2023/10/06 00:11:28;;;;;;;4.85;2.80;;;;;;;;;;4991188;28;20039;-82
2023/10/06 00:14:00;;;;;;;4.88;2.95;;;;;;;;;;4984616;28;20551;-81
2023/10/06 00:16:34;;;;;;;3.97;2.08;;;;;;;;;;4974691;28;20039;-82
2023/10/06 00:19:12;;;;;;;5.13;2.50;;;;;;;;;;4991362;28;20053;-82
2023/10/06 00:21:43;;;;;;;5.20;2.35;;;;;;;;;;5001186;28;20041;-81
2023/10/06 00:24:10;;;;;;;5.32;2.70;;;;;;;;;;4980198;28;20424;-81
2023/10/06 00:26:37;;;;;;;6.18;2.72;;;;;;;;;;4984094;28;20035;-81
2023/10/06 00:29:09;;;;;;;6.80;2.47;;;;;;;;;;4989756;28;20050;-80
2023/10/06 00:31:35;;;;;;;7.72;2.63;;;;;;;;;;4981321;28;20035;-81
2023/10/06 00:34:01;;;;;;;5.05;2.60;;;;;;;;;;4980374;28;20481;-81
2023/10/06 00:36:29;;;;;;;7.57;2.80;;;;;;;;;;4989802;28;20124;-81
2023/10/06 00:38:55;;;;;;;5.53;2.80;;;;;;;;;;4983795;28;20038;-81
2023/10/06 00:41:21;;;;;;;5.60;2.67;;;;;;;;;;4978378;28;20723;-81
2023/10/06 00:43:49;;;;;;;4.85;2.55;;;;;;;;;;4988194;28;20030;-82
2023/10/06 00:46:18;;;;;;;5.10;2.67;;;;;;;;;;4987493;28;20118;-81
2023/10/06 00:48:53;;;;;;;6.25;2.60;;;;;;;;;;4981506;28;20041;-81
2023/10/06 00:51:19;;;;;;;4.07;2.15;;;;;;;;;;4996850;28;20067;-81
2023/10/06 00:53:45;;;;;;;5.82;2.55;;;;;;;;;;5004326;28;20034;-81
2023/10/06 00:56:15;;;;;;;6.10;2.50;;;;;;;;;;4984042;28;20101;-81
2023/10/06 00:58:41;;;;;;;6.15;2.42;;;;;;;;;;4978448;28;20039;-81
2023/10/06 01:01:09;;;;;;;5.40;2.50;;;;;;;;;;4999115;28;20480;-81
2023/10/06 01:03:38;;;;;;;3.78;2.60;;;;;;;;;;5002512;28;20022;-81
2023/10/06 01:06:12;;;;;;;7.13;2.28;;;;;;;;;;4993145;28;20513;-81
2023/10/06 01:08:38;;;;;;;6.20;2.70;;;;;;;;;;4985413;28;20089;-81
2023/10/06 01:11:11;;;;;;;4.10;2.30;;;;;;;;;;4985299;28;20041;-81
2023/10/06 01:13:51;;;;;;;5.15;2.25;;;;;;;;;;4980235;28;20049;-80
2023/10/06 01:16:17;;;;;;;4.50;2.50;;;;;;;;;;4979253;28;20096;-81
2023/10/06 01:18:42;;;;;;;4.32;2.20;;;;;;;;;;5004316;28;20046;-80
2023/10/06 01:21:17;;;;;;;9.10;2.35;;;;;;;;;;4982922;28;20042;-81
2023/10/06 01:23:48;;;;;;;4.38;2.10;;;;;;;;;;4975593;28;20401;-81
2023/10/06 01:26:14;;;;;;;3.85;2.03;;;;;;;;;;4991794;28;20042;-80
2023/10/06 01:28:45;;;;;;;4.18;1.90;;;;;;;;;;4986644;28;20034;-80
2023/10/06 01:31:14;;;;;;;3.72;2.20;;;;;;;;;;4993727;28;20437;-81
2023/10/06 01:33:40;;;;;;;4.50;2.22;;;;;;;;;;4984577;28;20034;-81
2023/10/06 01:36:13;;;;;;;4.55;2.28;;;;;;;;;;4988099;28;20510;-82
2023/10/06 01:38:43;;;;;;;5.13;2.20;;;;;;;;;;4980025;28;20027;-81
2023/10/06 01:41:11;;;;;;;4.65;2.20;;;;;;;;;;4977993;28;20558;-82
2023/10/06 01:43:38;;;;;;;7.45;2.22;;;;;;;;;;4990085;28;20030;-81
2023/10/06 01:46:07;;;;;;;4.55;2.25;;;;;;;;;;4984618;28;20035;-80
2023/10/06 01:48:33;;;;;;;5.18;2.42;;;;;;;;;;4978754;28;20034;-81
2023/10/06 01:50:59;;;;;;;5.00;2.25;;;;;;;;;;4987076;28;20031;-81
2023/10/06 01:53:32;;;;;;;5.53;2.35;;;;;;;;;;4986749;28;20399;-80
2023/10/06 01:56:01;;;;;;;;;;;;;;;;;;4994798;28;20035;-80
2023/10/06 01:58:27;;;;;;;4.32;2.00;;;;;;;;;;4998890;28;20036;-81
2023/10/06 02:00:52;;;;;;;4.25;2.33;;;;;;;;;;5002949;28;20119;-81
2023/10/06 02:03:21;;;;;;;4.30;2.00;;;;;;;;;;4982737;28;20176;-81
2023/10/06 02:05:46;;;;;;;5.68;2.17;;;;;;;;;;4977827;28;20042;-80
2023/10/06 02:08:21;;;;;;;3.88;2.05;;;;;;;;;;4990830;28;20027;-81
2023/10/06 02:10:48;;;;;;;3.60;1.98;;;;;;;;;;4984146;28;20065;-82
2023/10/06 02:13:20;;;;;;;4.70;2.20;;;;;;;;;;4991619;28;20114;-80
2023/10/06 02:15:46;;;;;;;3.72;2.30;;;;;;;;;;4982529;28;20081;-80
2023/10/06 02:18:12;;;;;;;3.80;1.90;;;;;;;;;;4984185;28;20552;-80
2023/10/06 02:20:41;;;;;;;4.43;1.95;;;;;;;;;;4984073;28;20035;-79
2023/10/06 02:23:07;;;;;;;6.20;2.08;;;;;;;;;;4984315;28;20043;-81
2023/10/06 02:25:32;;;;;;;4.40;1.92;;;;;;;;;;4992085;28;20477;-81
2023/10/06 02:27:59;;;;;;;2.92;1.70;;;;;;;;;;4986194;28;20164;-78
2023/10/06 02:30:33;;;;;;;4.53;1.90;;;;;;;;;;4980562;28;20050;-81
2023/10/06 02:33:00;;;;;;;2.97;1.88;;;;;;;;;;5001825;28;20031;-81
2023/10/06 02:35:25;;;;;;;3.80;2.10;;;;;;;;;;4971586;28;20074;-81
2023/10/06 02:37:51;;;;;;;4.53;2.20;;;;;;;;;;4981882;28;20513;-81
2023/10/06 02:40:17;;;;;;;4.60;1.85;;;;;;;;;;4985721;28;20050;-82
2023/10/06 02:42:46;;;;;;;5.78;2.05;;;;;;;;;;4990951;28;20042;-82
2023/10/06 02:45:20;;;;;;;4.93;2.17;;;;;;;;;;4983602;28;20512;-80
2023/10/06 02:47:51;;;;;;;3.58;1.85;;;;;;;;;;4980876;28;20034;-81
2023/10/06 02:50:20;;;;;;;4.60;2.00;;;;;;;;;;5008493;28;20034;-82
2023/10/06 02:52:47;;;;;;;3.35;2.03;;;;;;;;;;4967712;28;20043;-81
2023/10/06 02:55:19;;;;;;;4.53;2.10;;;;;;;;;;4977257;28;20031;-82
2023/10/06 02:57:51;;;;;;;4.40;2.05;;;;;;;;;;4988710;28;20045;-81
2023/10/06 03:03:36;;;;;;;3.15;1.90;;;;;;;;;;4981414;28;20561;-82
2023/10/06 03:05:49;;;;;;;4.57;1.98;;;;;;;;;;4981955;28;20038;-82
2023/10/06 03:08:20;;;;;;;4.13;2.20;;;;;;;;;;4990277;28;20041;-81
2023/10/06 03:10:48;;;;;;;4.95;1.90;;;;;;;;;;4981928;28;20121;-81
2023/10/06 03:13:32;;;;;;;3.28;1.98;;;;;;;;;;4982887;28;20515;-82
2023/10/06 03:15:59;;;;;;;4.43;2.00;;;;;;;;;;4988304;28;20030;-81
2023/10/06 03:18:25;;;;;;;3.47;2.10;;;;;;;;;;4983967;28;20041;-81
2023/10/06 03:20:57;;;;;;;3.17;2.00;;;;;;;;;;4977979;28;20125;-82
2023/10/06 03:23:56;;;;;;;4.45;2.20;;;;;;;;;;4993500;28;20064;-81
2023/10/06 03:26:19;;;;;;;3.90;2.20;;;;;;;;;;4984789;28;20026;-79
2023/10/06 03:28:48;;;;;;;3.70;1.90;;;;;;;;;;4979485;28;20038;-80
2023/10/06 03:33:54;;;;;;;4.50;2.03;;;;;;;;;;5003025;28;20027;-82
2023/10/06 03:36:45;;;;;;;4.45;2.10;;;;;;;;;;4981445;28;20039;-81
2023/10/06 03:39:12;;;;;;;4.28;2.00;;;;;;;;;;5001390;28;20034;-81
2023/10/06 03:41:43;;;;;;;4.10;1.92;;;;;;;;;;5003818;28;20046;-81
2023/10/06 03:44:11;;;;;;;3.95;2.10;;;;;;;;;;4980909;28;20027;-80
2023/10/06 03:46:37;;;;;;;5.38;2.50;;;;;;;;;;4993535;28;20034;-82
2023/10/06 03:49:07;;;;;;;4.97;3.00;;;;;;;;;;4990076;28;20050;-81
2023/10/06 03:51:38;;;;;;;5.35;2.30;;;;;;;;;;4983744;28;20038;-81
2023/10/06 03:54:04;;;;;;;4.53;2.47;;;;;;;;;;4978735;28;20038;-82
2023/10/06 03:56:32;;;;;;;5.70;2.45;;;;;;;;;;4991535;28;20045;-81
2023/10/06 03:58:59;;;;;;;4.03;2.55;;;;;;;;;;4987525;28;20404;-81
2023/10/06 04:01:31;;;;;;;5.53;2.90;;;;;;;;;;4974004;28;20042;-82
2023/10/06 04:04:00;;;;;;;6.22;2.70;;;;;;;;;;4981343;28;20049;-81
2023/10/06 04:06:26;;;;;;;4.53;2.00;;;;;;;;;;5004201;28;20035;-81
2023/10/06 04:08:52;;;;;;;3.58;2.33;;;;;;;;;;4982859;28;20031;-82
2023/10/06 04:11:19;;;;;;;4.78;1.95;;;;;;;;;;4980697;28;20039;-82
2023/10/06 04:13:45;;;;;;;3.35;2.08;;;;;;;;;;4992754;28;20042;-82
2023/10/06 04:16:14;;;;;;;4.18;2.00;;;;;;;;;;4986559;28;20026;-82
2023/10/06 04:18:40;;;;;;;2.78;1.83;;;;;;;;;;4979236;28;20481;-81
2023/10/06 04:21:11;;;;;;;3.30;1.98;;;;;;;;;;4984681;28;20145;-81
2023/10/06 04:23:41;;;;;;;3.03;1.85;;;;;;;;;;4987837;28;20049;-82
2023/10/06 04:26:11;;;;;;;3.05;2.10;;;;;;;;;;4983031;28;20030;-82
2023/10/06 04:28:37;;;;;;;4.07;2.13;;;;;;;;;;4983641;28;20136;-82
2023/10/06 04:31:05;;;;;;;4.88;2.38;;;;;;;;;;4990322;28;20038;-81
2023/10/06 04:33:31;;;;;;;11.38;2.65;;;;;;;;;;4984059;28;20053;-82
2023/10/06 04:36:07;;;;;;;6.75;2.47;;;;;;;;;;4978376;28;20468;-82
2023/10/06 04:38:37;;;;;;;5.05;2.40;;;;;;;;;;4988743;28;20034;-82
2023/10/06 04:41:04;;;;;;;5.78;2.22;;;;;;;;;;4982717;28;20489;-82
2023/10/06 04:43:29;;;;;;;6.80;2.50;;;;;;;;;;4978318;28;20105;-80
2023/10/06 04:45:55;;;;;;;5.82;2.50;;;;;;;;;;4984876;28;20070;-81
2023/10/06 04:48:21;;;;;;;6.15;2.53;;;;;;;;;;4988181;28;20031;-80
2023/10/06 04:50:50;;;;;;;4.78;2.42;;;;;;;;;;4981994;28;20779;-81
2023/10/06 04:53:16;;;;;;;9.50;2.70;;;;;;;;;;4981429;28;20031;-81
2023/10/06 04:55:43;;;;;;;5.28;2.90;;;;;;;;;;5005521;28;20018;-81
2023/10/06 04:58:09;;;;;;;3.92;2.42;;;;;;;;;;4980160;28;20038;-81
2023/10/06 05:00:35;;;;;;;6.07;2.63;;;;;;;;;;4978309;28;20035;-81
2023/10/06 05:03:06;;;;;;;6.35;2.80;;;;;;;;;;4985358;28;20049;-80
2023/10/06 05:05:37;;;;;;;4.55;2.50;;;;;;;;;;4987078;28;20489;-81
2023/10/06 05:08:04;;;;;;;6.82;2.60;;;;;;;;;;4979972;28;20039;-82
2023/10/06 05:10:31;;;;;;;4.43;2.40;;;;;;;;;;4982923;28;20026;-81
2023/10/06 05:13:02;;;;;;;4.82;2.38;;;;;;;;;;4988564;28;20034;-82
2023/10/06 05:15:30;;;;;;;6.20;2.50;;;;;;;;;;4979965;28;20044;-80
2023/10/06 05:18:00;;;;;;;6.78;2.50;;;;;;;;;;4978252;28;20069;-82
2023/10/06 05:20:30;;;;;;;4.88;2.78;;;;;;;;;;4991363;28;20049;-82
2023/10/06 05:23:06;;;;;;;4.35;2.50;;;;;;;;;;4983686;28;20089;-81
2023/10/06 05:25:42;;;;;;;3.92;2.65;;;;;;;;;;4976222;28;20085;-82
2023/10/06 05:28:11;;;;;;;4.25;2.42;;;;;;;;;;4982214;28;20034;-81
2023/10/06 05:30:38;;;;;;;4.75;2.40;;;;;;;;;;4983938;28;20026;-80
2023/10/06 05:33:04;;;;;;;6.47;3.03;;;;;;;;;;4978844;28;20046;-81
2023/10/06 05:35:40;;;;;;;5.50;3.13;;;;;;;;;;4976743;28;20073;-80
2023/10/06 05:38:08;;;;;;;5.30;3.03;;;;;;;;;;4965784;28;20035;-80
2023/10/06 05:40:37;;;;;;;5.30;2.95;;;;;;;;;;4976546;28;20058;-80
2023/10/06 05:43:04;;;;;;;4.68;2.90;;;;;;;;;;4973724;28;20031;-81
2023/10/06 05:45:30;;;;;;;4.50;2.72;;;;;;;;;;4989615;28;20030;-80
2023/10/06 05:47:58;;;;;;;5.68;2.33;;;;;;;;;;4981327;28;20426;-80
2023/10/06 05:50:28;;;;;;;5.85;2.38;;;;;;;;;;4976702;28;20074;-80
2023/10/06 05:52:57;;;;;;;5.25;2.53;;;;;;;;;;4982569;28;20038;-81
2023/10/06 05:55:24;;;;;;;4.80;2.67;;;;;;;;;;4983609;28;20035;-81
2023/10/06 05:57:55;;;;;;;4.72;2.70;;;;;;;;;;4984409;28;20564;-80
2023/10/06 06:00:25;;;;;;;5.35;2.65;;;;;;;;;;4982748;28;20038;-80
2023/10/06 06:02:52;;;;;;;11.75;3.40;;;;;;;;;;5004677;28;20059;-80
2023/10/06 06:05:17;;;;;;;5.97;2.80;;;;;;;;;;4984734;28;20030;-80
2023/10/06 06:07:43;;;;;;;4.93;2.97;;;;;;;;;;4979708;28;20042;-80
2023/10/06 06:10:13;;;;;;;5.82;2.95;;;;;;;;;;4991746;28;20042;-81
2023/10/06 06:12:42;;;;;;;6.78;2.90;;;;;;;;;;4986865;28;20042;-81
2023/10/06 06:15:08;;;;;;;8.02;4.10;;;;;;;;;;4981646;28;20031;-80
2023/10/06 06:17:34;;;;;;;14.68;3.70;;;;;;;;;;4982612;28;20034;-80
2023/10/06 06:20:01;;;;;;;7.38;3.75;;;;;;;;;;4989211;28;20027;-81
2023/10/06 06:22:29;;;;;;;6.38;3.33;;;;;;;;;;4996531;28;20039;-81
2023/10/06 06:24:55;;;;;;;5.20;3.20;;;;;;;;;;4979847;28;20503;-80
2023/10/06 06:27:22;;;;;;;7.43;3.15;;;;;;;;;;4991761;28;20063;-81
2023/10/06 06:29:49;;;;;;;7.82;3.45;;;;;;;;;;4982281;28;20113;-82
2023/10/06 06:32:16;;;;;;;7.13;3.60;;;;;;;;;;4979457;28;20053;-80
2023/10/06 06:34:41;;;;;;;5.93;3.30;;;;;;;;;;5002882;28;20042;-81
2023/10/06 06:37:09;;;;;;;6.13;3.40;;;;;;;;;;4987026;28;20046;-81
2023/10/06 06:39:37;;;;;;;8.50;3.70;;;;;;;;;;4979511;28;20090;-80
2023/10/06 06:42:05;;;;;;;6.95;3.75;;;;;;;;;;4979267;28;20034;-81
2023/10/06 06:44:31;;;;;;;5.78;3.25;;;;;;;;;;4990256;28;20034;-80
2023/10/06 06:46:56;;;;;;;5.35;2.88;;;;;;;;;;4984811;28;20102;-80
2023/10/06 06:49:23;;;;;;;5.82;2.95;;;;;;;;;;4973411;28;20049;-80
2023/10/06 06:51:52;;;;;;;8.80;3.17;;;;;;;;;;4990003;28;20065;-80
2023/10/06 06:54:19;;;;;;;7.70;3.13;;;;;;;;;;4985004;28;20074;-80
2023/10/06 06:56:47;;;;;;;5.95;3.20;;;;;;;;;;4981581;28;21918;-81
2023/10/06 06:59:13;;;;;;;6.55;3.22;;;;;;;;;;4983698;28;20064;-81
2023/10/06 07:01:38;;;;;;;4.90;3.00;;;;;;;;;;4988127;28;20497;-82
2023/10/06 07:04:06;;;;;;;5.35;2.75;;;;;;;;;;4983517;28;20077;-80
2023/10/06 07:06:31;;;;;;;5.82;3.13;;;;;;;;;;4991171;28;20043;-81
2023/10/06 07:08:57;;;;;;;4.72;3.00;;;;;;;;;;4991575;28;20049;-81
2023/10/06 07:11:23;;;;;;;3.88;2.90;;;;;;;;;;5000039;28;20670;-80
2023/10/06 07:13:48;;;;;;;7.53;3.30;;;;;;;;;;4977554;28;20401;-80
2023/10/06 07:16:14;;;;;;;4.53;3.20;;;;;;;;;;4987968;28;20400;-80
2023/10/06 07:18:40;;;;;;;5.35;3.20;;;;;;;;;;5003838;28;20051;-80
2023/10/06 07:21:10;;;;;;;6.18;3.30;;;;;;;;;;4982020;28;20109;-80
2023/10/06 07:23:37;;;;;;;4.63;3.00;;;;;;;;;;4979245;28;20039;-81
2023/10/06 07:26:10;;;;;;;6.47;2.92;;;;;;;;;;4991048;28;20057;-79
2023/10/06 07:28:38;;;;;;;4.85;3.08;;;;;;;;;;4984735;28;20044;-81
2023/10/06 07:31:16;;;;;;;7.07;3.78;;;;;;;;;;4977145;28;20294;-79
2023/10/06 07:33:47;;;;;;;6.30;3.10;;;;;;;;;;4991096;28;20042;-80
2023/10/06 07:36:17;;;;;;;9.68;4.20;;;;;;;;;;4985396;28;20121;-81
2023/10/06 07:38:44;;;;;;;6.80;3.40;;;;;;;;;;4991874;28;20049;-79
2023/10/06 07:41:23;;;;;;;7.18;3.50;;;;;;;;;;4981756;28;20041;-80
2023/10/06 07:43:49;;;;;;;7.35;3.50;;;;;;;;;;4987898;28;20038;-81
2023/10/06 07:46:16;;;;;;;9.70;4.20;;;;;;;;;;4982030;28;20042;-80
2023/10/06 07:48:45;;;;;;;7.60;3.90;;;;;;;;;;4979813;28;20042;-79
2023/10/06 07:51:13;;;;;;;8.88;4.13;;;;;;;;;;5003192;28;20041;-80
2023/10/06 07:53:39;;;;;;;6.82;3.88;;;;;;;;;;4963023;28;20047;-80
2023/10/06 07:56:08;;;;;;;6.68;4.07;;;;;;;;;;4978144;28;20066;-80
2023/10/06 07:58:37;;;;;;;11.85;4.30;;;;;;;;;;4988645;28;20041;-79
2023/10/06 08:01:12;;;;;;;8.10;4.30;;;;;;;;;;4985308;28;20077;-79
2023/10/06 08:03:39;;;;;;;11.15;4.55;;;;;;;;;;4970106;28;20043;-79
2023/10/06 08:06:05;;;;;;;8.30;4.05;;;;;;;;;;4995100;28;20027;-80
2023/10/06 08:08:33;;;;;;;8.15;4.68;;;;;;;;;;4987483;28;20412;-80
2023/10/06 08:11:02;;;;;;;10.23;4.72;;;;;;;;;;4994473;28;20050;-82
2023/10/06 08:13:31;;;;;;;6.30;3.10;;;;;;;;;;4975813;28;20026;-82
2023/10/06 08:15:58;;;;;;;9.43;3.83;;;;;;;;;;4993279;28;20065;-81
2023/10/06 08:18:25;;;;;;;14.90;4.50;;;;;;;;;;4987609;28;20094;-80
2023/10/06 08:20:53;;;;;;;12.50;4.25;;;;;;;;;;4982588;28;20044;-81
2023/10/06 08:23:19;;;;;;;8.50;3.97;;;;;;;;;;4992862;28;20066;-80
2023/10/06 08:25:46;;;;;;;6.63;3.55;;;;;;;;;;4990416;28;20057;-81
2023/10/06 08:28:12;;;;;;;9.73;3.90;;;;;;;;;;4988082;28;20489;-82
2023/10/06 08:30:38;;;;;;;9.80;3.90;;;;;;;;;;4984316;28;20026;-81
2023/10/06 08:33:08;;;;;;;9.02;3.88;;;;;;;;;;4995202;28;20030;-81
2023/10/06 08:35:34;;;;;;;9.60;3.92;;;;;;;;;;4989757;28;20058;-82
2023/10/06 08:38:00;;;;;;;7.25;3.50;;;;;;;;;;4979502;28;20401;-82
2023/10/06 08:40:26;;;;;;;8.45;4.05;;;;;;;;;;4994450;28;20113;-81
2023/10/06 08:42:56;;;;;;;9.07;4.10;;;;;;;;;;4991200;28;20046;-82
2023/10/06 08:45:26;;;;;;;7.07;3.92;;;;;;;;;;4987317;28;20070;-81
2023/10/06 08:47:54;;;;;;;7.65;3.72;;;;;;;;;;4992175;28;20691;-81
2023/10/06 08:50:24;;;;;;;6.82;3.78;;;;;;;;;;4994945;28;20042;-82
2023/10/06 08:52:51;;;;;;;8.90;3.80;;;;;;;;;;4986162;28;20041;-82
2023/10/06 08:55:18;;;;;;;8.18;3.83;;;;;;;;;;4981563;28;20540;-82
2023/10/06 08:57:47;;;;;;;7.35;3.42;;;;;;;;;;4997306;28;20049;-82
2023/10/06 09:00:17;;;;;;;6.38;3.38;;;;;;;;;;4988964;28;20035;-81
2023/10/06 09:02:47;;;;;;;5.47;3.13;;;;;;;;;;4998181;28;20563;-82
2023/10/06 09:05:17;;;;;;;6.63;3.47;;;;;;;;;;4994669;28;20034;-83
2023/10/06 09:07:59;;;;;;;9.00;3.60;;;;;;;;;;4988954;28;20097;-83
2023/10/06 09:10:26;;;;;;;7.18;3.60;;;;;;;;;;4991315;28;20065;-84
2023/10/06 09:13:06;;;;;;;10.63;3.83;;;;;;;;;;5005927;28;20097;-83
2023/10/06 09:15:35;;;;;;;9.85;3.40;;;;;;;;;;4989522;28;20457;-83
2023/10/06 09:18:15;;;;;;;8.15;3.60;;;;;;;;;;4976571;28;20046;-83
2023/10/06 09:20:40;;;;;;;9.05;3.92;;;;;;;;;;4973410;28;20057;-84
2023/10/06 09:23:06;;;;;;;9.50;3.70;;;;;;;;;;4987252;28;20488;-83
2023/10/06 09:25:42;;;;;;;6.07;3.22;;;;;;;;;;4984133;28;20137;-84
2023/10/06 09:28:13;;;;;;;6.43;3.70;;;;;;;;;;4991375;28;20039;-83
2023/10/06 09:30:50;;;;;;;9.25;4.00;;;;;;;;;;4991957;28;20069;-82
2023/10/06 09:33:16;;;;;;;7.78;3.80;;;;;;;;;;4985002;28;20034;-83
2023/10/06 09:35:43;;;;;;;7.85;3.50;;;;;;;;;;4983498;28;20052;-83
2023/10/06 09:38:17;;;;;;;8.85;3.55;;;;;;;;;;4989723;28;20540;-82
2023/10/06 09:40:46;;;;;;;9.65;3.80;;;;;;;;;;4990035;28;20034;-83
2023/10/06 09:43:15;;;;;;;6.55;3.33;;;;;;;;;;4998311;28;20109;-81
2023/10/06 09:45:42;;;;;;;7.45;3.22;;;;;;;;;;4995674;28;20789;-82
2023/10/06 09:48:15;;;;;;;8.70;3.30;;;;;;;;;;4988381;28;20625;-82
2023/10/06 09:50:46;;;;;;;5.13;3.10;;;;;;;;;;4981897;28;20081;-83
2023/10/06 09:53:12;;;;;;;6.80;3.40;;;;;;;;;;4976431;28;20054;-83
2023/10/06 09:55:40;;;;;;;7.55;3.78;;;;;;;;;;4989992;28;20038;-82
2023/10/06 09:58:07;;;;;;;5.47;3.28;;;;;;;;;;4983874;28;20404;-83
2023/10/06 10:00:35;;;;;;;7.70;3.20;;;;;;;;;;4994170;28;20050;-83
2023/10/06 10:03:00;;;;;;;8.65;3.33;;;;;;;;;;4979784;28;20506;-84
2023/10/06 10:05:29;;;;;;;6.07;3.15;;;;;;;;;;4986694;28;20636;-83
2023/10/06 10:07:55;;;;;;;4.82;2.80;;;;;;;;;;4977858;28;20083;-83
2023/10/06 10:10:22;;;;;;;8.05;2.85;;;;;;;;;;4990820;28;20089;-84
2023/10/06 10:13:25;;;;;;;6.20;2.90;;;;;;;;;;4988058;28;20037;-83
2023/10/06 10:16:09;;;;;;;5.65;2.78;;;;;;;;;;4980291;28;20066;-82
2023/10/06 10:18:40;;;;;;;6.35;2.92;;;;;;;;;;4977060;28;20038;-84
2023/10/06 10:21:11;;;;;;;5.63;3.08;;;;;;;;;;4988384;28;20034;-83
2023/10/06 10:23:42;;;;;;;8.10;3.22;;;;;;;;;;4982606;28;20033;-84
2023/10/06 10:26:28;;;;;;;5.63;3.03;;;;;;;;;;4989804;28;20031;-81
2023/10/06 10:29:12;;;;;;;7.85;3.08;;;;;;;;;;4992926;28;20049;-84
2023/10/06 10:32:01;;;;;;;5.88;2.97;;;;;;;;;;4981350;28;20070;-84
2023/10/06 10:34:32;;;;;;;4.95;2.80;;;;;;;;;;4981124;28;20062;-84
2023/10/06 10:37:05;;;;;;;5.05;3.05;;;;;;;;;;4986788;28;20034;-84
2023/10/06 10:39:50;;;;;;;8.07;3.83;;;;;;;;;;4983077;28;20046;-84
2023/10/06 10:42:36;;;;;;;7.18;3.42;;;;;;;;;;4979755;28;20049;-84
2023/10/06 10:45:27;;;;;;;10.45;3.70;;;;;;;;;;4989552;28;20177;-84
2023/10/06 10:47:55;;;;;;;8.70;3.50;;;;;;;;;;4989977;28;20046;-84
2023/10/06 10:50:25;;;;;;;6.72;3.67;;;;;;;;;;4982948;28;20057;-83
2023/10/06 10:52:53;;;;;;;6.70;3.80;;;;;;;;;;4983486;28;20045;-84
2023/10/06 10:55:26;;;;;;;8.57;3.45;;;;;;;;;;4990235;28;20038;-84
2023/10/06 10:57:52;;;;;;;4.97;3.30;;;;;;;;;;4981688;28;20039;-84
2023/10/06 11:00:20;;;;;;;5.57;3.30;;;;;;;;;;4977047;28;20061;-85
2023/10/06 11:02:49;;;;;;;8.35;3.70;;;;;;;;;;4991184;28;20066;-83
2023/10/06 11:05:22;;;;;;;6.85;3.75;;;;;;;;;;4987032;28;20039;-84
2023/10/06 11:08:01;;;;;;;6.28;3.50;;;;;;;;;;4981086;28;20488;-84
2023/10/06 11:10:27;;;;;;;7.70;3.65;;;;;;;;;;4989775;28;20031;-84
2023/10/06 11:13:12;;;;;;;8.52;3.95;;;;;;;;;;4988127;28;20036;-84
2023/10/06 11:15:39;;;;;;;8.50;3.58;;;;;;;;;;4973455;28;20039;-84
2023/10/06 11:18:06;;;;;;;9.48;3.60;;;;;;;;;;4984508;28;20563;-85
2023/10/06 11:20:40;;;;;;;8.13;3.67;;;;;;;;;;5005160;28;20087;-85
2023/10/06 11:23:06;;;;;;;6.80;3.40;;;;;;;;;;4981985;28;20042;-84
2023/10/06 11:25:35;;;;;;;8.85;3.75;;;;;;;;;;4980396;28;20038;-84
2023/10/06 11:28:12;;;;;;;7.35;4.10;;;;;;;;;;4991795;28;20042;-84
2023/10/06 11:30:39;;;;;;;8.73;3.95;;;;;;;;;;4982601;28;20155;-84
2023/10/06 11:33:08;;;;;;;7.07;3.70;;;;;;;;;;4979339;28;20035;-85
2023/10/06 11:35:35;;;;;;;6.97;3.63;;;;;;;;;;5004161;28;20046;-84
2023/10/06 11:38:06;;;;;;;6.80;3.78;;;;;;;;;;4980048;28;20034;-84
2023/10/06 11:40:32;;;;;;;7.82;3.67;;;;;;;;;;4980903;28;20089;-84
2023/10/06 11:43:17;;;;;;;7.90;3.30;;;;;;;;;;4981552;28;20038;-83
2023/10/06 11:45:43;;;;;;;7.75;4.00;;;;;;;;;;4989260;28;20038;-84
2023/10/06 11:48:28;;;;;;;8.57;3.50;;;;;;;;;;4982878;28;20026;-84
2023/10/06 11:51:08;;;;;;;8.13;3.65;;;;;;;;;;4981461;28;20505;-84
2023/10/06 11:53:37;;;;;;;7.10;3.58;;;;;;;;;;4970062;28;20053;-84
2023/10/06 11:56:13;;;;;;;6.75;3.45;;;;;;;;;;4979710;28;20039;-84
2023/10/06 11:58:40;;;;;;;7.97;3.95;;;;;;;;;;4976406;28;20041;-84
2023/10/06 12:01:26;;;;;;;8.65;3.70;;;;;;;;;;5005450;28;20117;-84
2023/10/06 12:03:52;;;;;;;7.32;3.50;;;;;;;;;;4984028;28;20038;-84
2023/10/06 12:06:23;;;;;;;9.38;3.67;;;;;;;;;;4979599;28;20519;-84
2023/10/06 12:08:52;;;;;;;8.10;3.60;;;;;;;;;;4987775;28;20133;-85
2023/10/06 12:11:19;;;;;;;8.93;3.60;;;;;;;;;;4986549;28;20030;-84
2023/10/06 12:13:45;;;;;;;7.03;3.58;;;;;;;;;;4978849;28;20046;-84
2023/10/06 12:16:15;;;;;;;9.82;3.65;;;;;;;;;;4999322;28;20030;-84
2023/10/06 12:18:46;;;;;;;9.68;3.60;;;;;;;;;;4989420;28;20607;-85
2023/10/06 12:21:15;;;;;;;4.93;3.30;;;;;;;;;;4975964;28;20094;-84
2023/10/06 12:23:41;;;;;;;5.78;3.30;;;;;;;;;;4979517;28;20568;-85
2023/10/06 12:26:07;;;;;;;5.93;3.33;;;;;;;;;;4991030;28;20042;-85
2023/10/06 12:28:32;;;;;;;6.40;3.10;;;;;;;;;;4984001;28;20125;-83
2023/10/06 12:30:58;;;;;;;8.65;3.35;;;;;;;;;;4981196;28;20141;-83
2023/10/06 12:33:23;;;;;;;7.78;3.30;;;;;;;;;;4989299;28;20034;-84
2023/10/06 12:35:52;;;;;;;5.97;3.40;;;;;;;;;;4991348;28;20034;-84
2023/10/06 12:38:18;;;;;;;6.05;3.20;;;;;;;;;;4979393;28;20034;-85
2023/10/06 12:40:46;;;;;;;8.20;3.42;;;;;;;;;;4980832;28;20129;-85
2023/10/06 12:43:13;;;;;;;5.93;3.38;;;;;;;;;;4990768;28;20057;-85
2023/10/06 12:45:39;;;;;;;7.03;3.38;;;;;;;;;;4986306;28;20544;-85
2023/10/06 12:48:05;;;;;;;7.78;3.20;;;;;;;;;;4979004;28;20034;-84
2023/10/06 12:50:30;;;;;;;5.45;3.17;;;;;;;;;;4980944;28;20043;-84
2023/10/06 12:52:56;;;;;;;6.07;3.13;;;;;;;;;;5003128;28;20038;-85
2023/10/06 12:55:24;;;;;;;8.15;3.40;;;;;;;;;;4981016;28;20041;-86
2023/10/06 12:57:51;;;;;;;8.18;3.40;;;;;;;;;;4981855;28;20065;-85
2023/10/06 13:00:19;;;;;;;7.45;3.20;;;;;;;;;;4988767;28;20496;-85
2023/10/06 13:02:48;;;;;;;8.40;3.05;;;;;;;;;;4989207;28;20498;-84
2023/10/06 13:05:18;;;;;;;6.03;2.80;;;;;;;;;;4976829;28;20711;-84
2023/10/06 13:07:47;;;;;;;6.95;2.88;;;;;;;;;;4988842;28;20097;-83
2023/10/06 13:10:15;;;;;;;5.63;2.90;;;;;;;;;;4984275;28;20051;-82
2023/10/06 13:12:41;;;;;;;6.57;2.90;;;;;;;;;;4976755;28;20416;-85
2023/10/06 13:15:12;;;;;;;6.72;3.00;;;;;;;;;;4988002;28;20100;-86
2023/10/06 13:17:42;;;;;;;6.05;3.00;;;;;;;;;;4986988;28;20129;-84
2023/10/06 13:20:08;;;;;;;5.80;2.83;;;;;;;;;;4977072;28;20050;-85
2023/10/06 13:22:36;;;;;;;8.82;3.40;;;;;;;;;;4981247;28;20057;-83
2023/10/06 13:25:03;;;;;;;5.75;3.08;;;;;;;;;;5005558;28;20042;-85
2023/10/06 13:27:28;;;;;;;6.85;3.15;;;;;;;;;;4983950;28;20042;-84
2023/10/06 13:29:55;;;;;;;6.88;3.00;;;;;;;;;;4992520;28;20038;-84
2023/10/06 13:32:21;;;;;;;6.25;2.92;;;;;;;;;;4984877;28;20043;-83
2023/10/06 13:34:47;;;;;;;5.25;3.03;;;;;;;;;;4984028;28;20118;-84
2023/10/06 13:37:14;;;;;;;6.80;2.80;;;;;;;;;;4979768;28;20171;-85
2023/10/06 13:39:40;;;;;;;5.30;2.80;;;;;;;;;;4981444;28;20034;-86
2023/10/06 13:42:06;;;;;;;4.55;2.55;;;;;;;;;;4987026;28;20053;-84
2023/10/06 13:44:32;;;;;;;5.10;2.50;;;;;;;;;;4982650;28;20436;-84
2023/10/06 13:46:57;;;;;;;5.55;2.60;;;;;;;;;;4977269;28;20038;-84
2023/10/06 13:49:29;;;;;;;8.18;2.75;;;;;;;;;;4990189;28;20045;-84
2023/10/06 13:51:55;;;;;;;6.47;2.53;;;;;;;;;;4981495;28;20039;-85
2023/10/06 13:54:21;;;;;;;5.68;2.72;;;;;;;;;;4979604;28;20046;-84
2023/10/06 13:56:47;;;;;;;5.85;2.70;;;;;;;;;;4982430;28;20038;-84
2023/10/06 13:59:16;;;;;;;10.73;2.60;;;;;;;;;;5000816;28;20413;-85
2023/10/06 14:01:42;;;;;;;6.32;2.53;;;;;;;;;;4978883;28;20038;-85
2023/10/06 14:04:08;;;;;;;6.00;2.70;;;;;;;;;;4978602;28;20416;-85
2023/10/06 14:06:34;;;;;;;4.97;2.47;;;;;;;;;;4988607;28;20039;-83
2023/10/06 14:08:59;;;;;;;4.78;2.60;;;;;;;;;;4983358;28;20086;-82
2023/10/06 14:11:25;;;;;;;5.32;2.55;;;;;;;;;;4977532;28;20038;-85
2023/10/06 14:13:50;;;;;;;6.25;2.92;;;;;;;;;;4984055;28;20488;-84
2023/10/06 14:16:22;;;;;;;7.07;2.67;;;;;;;;;;4989832;28;20073;-83
2023/10/06 14:18:48;;;;;;;3.95;2.58;;;;;;;;;;4983263;28;20035;-83
2023/10/06 14:21:14;;;;;;;7.47;2.72;;;;;;;;;;4984973;28;20034;-83
2023/10/06 14:23:46;;;;;;;4.93;2.63;;;;;;;;;;4991896;28;20451;-84
2023/10/06 14:26:12;;;;;;;5.70;2.58;;;;;;;;;;4985406;28;20069;-85
2023/10/06 14:28:39;;;;;;;8.70;2.95;;;;;;;;;;4980170;28;20507;-85
2023/10/06 14:31:09;;;;;;;5.72;2.53;;;;;;;;;;4993006;28;20563;-85
2023/10/06 14:33:44;;;;;;;4.35;2.42;;;;;;;;;;4987313;28;20058;-85
2023/10/06 14:36:21;;;;;;;6.57;3.15;;;;;;;;;;4977227;28;20516;-82
2023/10/06 14:46:30;;;;;;;4.80;2.38;;;;;;;;;;4988498;28;20058;-83
2023/10/06 14:48:59;;;;;;;6.28;2.58;;;;;;;;;;4994943;28;20066;-84
2023/10/06 14:51:25;;;;;;;5.75;2.97;;;;;;;;;;4988935;28;20030;-84
2023/10/06 14:53:50;;;;;;;5.93;2.88;;;;;;;;;;4982490;28;20030;-83
2023/10/06 14:56:16;;;;;;;5.65;3.00;;;;;;;;;;5012091;28;20030;-85
2023/10/06 14:58:44;;;;;;;7.15;2.63;;;;;;;;;;4987335;28;20043;-83
2023/10/06 15:01:12;;;;;;;4.70;2.55;;;;;;;;;;4984331;28;20034;-82
2023/10/06 15:03:40;;;;;;;5.55;2.83;;;;;;;;;;4986916;28;20487;-83
2023/10/06 15:06:09;;;;;;;6.10;2.70;;;;;;;;;;5004578;28;20097;-85
2023/10/06 15:08:36;;;;;;;6.78;2.90;;;;;;;;;;4982217;28;20077;-82